createdAt,value
2022-10-21T00:01:32.911Z,97594.31
2022-10-21T00:06:36.706Z,97587.28
2022-10-21T00:11:40.253Z,97582.41
2022-10-21T00:16:45.608Z,97578.81
2022-10-21T00:21:59.589Z,97563.59
2022-10-21T00:27:04.527Z,97591.00
2022-10-21T00:32:09.237Z,97586.91
2022-10-21T00:37:15.464Z,97611.03
2022-10-21T00:42:21.338Z,97605.84
2022-10-21T00:47:24.431Z,97595.25
2022-10-21T00:52:29.803Z,97607.22
2022-10-21T00:57:35.532Z,97610.19
2022-10-21T01:02:39.176Z,97622.94
2022-10-21T01:07:43.091Z,97616.41
2022-10-21T01:12:56.820Z,97612.63
2022-10-21T01:18:23.545Z,97628.13
2022-10-21T01:23:51.676Z,97634.13
2022-10-21T01:29:09.693Z,97625.41
2022-10-21T01:34:14.666Z,97637.59
2022-10-21T01:39:28.211Z,97643.81
2022-10-21T01:44:48.374Z,97645.16
2022-10-21T01:50:04.960Z,97622.34
2022-10-21T01:55:12.727Z,97612.03
2022-10-21T02:00:16.402Z,97614.75
2022-10-21T02:05:27.771Z,97612.88
2022-10-21T02:10:37.336Z,97616.66
2022-10-21T02:15:42.533Z,97616.72
2022-10-21T02:20:56.220Z,97605.88
2022-10-21T02:26:00.095Z,97608.59
2022-10-21T02:31:06.249Z,97593.94
2022-10-21T02:36:47.795Z,97589.34
2022-10-21T02:41:54.033Z,97571.25
2022-10-21T02:47:29.974Z,97560.16
2022-10-21T02:52:33.515Z,97566.44
2022-10-21T02:57:37.248Z,97574.31
2022-10-21T03:02:41.235Z,97575.13
2022-10-21T03:07:46.796Z,97574.88
2022-10-21T03:12:50.720Z,97569.19
2022-10-21T03:17:54.056Z,97562.97
2022-10-21T03:22:57.398Z,97589.56
2022-10-21T03:28:02.106Z,97590.88
2022-10-21T03:33:06.146Z,97591.16
2022-10-21T03:38:10.859Z,97588.19
2022-10-21T03:43:14.242Z,97593.38
2022-10-21T03:48:19.247Z,97607.47
2022-10-21T03:53:42.183Z,97615.31
2022-10-21T03:58:47.029Z,97606.06
2022-10-21T04:03:50.760Z,97600.06
2022-10-21T04:08:58.734Z,97585.09
2022-10-21T04:14:02.335Z,97582.91
2022-10-21T04:19:05.774Z,97587.75
2022-10-21T04:24:11.269Z,97603.25
2022-10-21T04:29:14.913Z,97619.81
2022-10-21T04:34:18.784Z,97619.53
2022-10-21T04:39:22.448Z,97613.56
2022-10-21T04:44:25.872Z,97626.56
2022-10-21T04:49:29.731Z,97646.59
2022-10-21T04:54:34.246Z,97640.84
2022-10-21T04:59:37.772Z,97652.16
2022-10-21T05:04:41.700Z,97653.22
2022-10-21T05:09:45.567Z,97645.31
2022-10-21T05:14:48.995Z,97639.59
2022-10-21T05:19:52.607Z,97647.22
2022-10-21T05:24:55.964Z,97675.19
2022-10-21T05:29:59.460Z,97680.84
2022-10-21T05:35:03.003Z,97658.41
2022-10-21T05:40:08.170Z,97658.25
2022-10-21T05:45:13.295Z,97684.94
2022-10-21T05:50:17.494Z,97697.03
2022-10-21T05:55:21.610Z,97693.47
2022-10-21T06:00:25.340Z,97709.47
2022-10-21T06:05:33.860Z,97703.88
2022-10-21T06:10:37.341Z,97697.50
2022-10-21T06:15:40.929Z,97709.03
2022-10-21T06:20:44.446Z,97722.00
2022-10-21T06:26:01.189Z,97735.34
2022-10-21T06:31:05.536Z,97736.00
2022-10-21T06:36:09.384Z,97732.06
2022-10-21T06:41:14.525Z,97736.34
2022-10-21T06:46:18.585Z,97747.28
2022-10-21T06:51:23.454Z,97730.31
2022-10-21T06:56:27.978Z,97752.50
2022-10-21T07:01:55.335Z,97747.00
2022-10-21T07:06:55.658Z,97724.03
2022-10-21T07:12:01.035Z,97713.00
2022-10-21T07:17:05.372Z,97704.59
2022-10-21T07:22:08.671Z,97700.22
2022-10-21T07:27:12.196Z,97691.34
2022-10-21T07:32:15.706Z,97702.34
2022-10-21T07:37:19.073Z,97707.66
2022-10-21T07:42:22.616Z,97693.22
2022-10-21T07:47:26.148Z,97705.44
2022-10-21T07:52:30.314Z,97710.50
2022-10-21T07:57:35.246Z,97718.25
2022-10-21T08:02:38.738Z,97705.75
2022-10-21T08:07:42.739Z,97709.00
2022-10-21T08:12:46.011Z,97708.13
2022-10-21T08:17:49.235Z,97689.44
2022-10-21T08:22:52.749Z,97689.22
2022-10-21T08:27:56.947Z,97694.69
2022-10-21T08:33:00.882Z,97679.91
2022-10-21T08:38:04.451Z,97670.53
2022-10-21T08:43:11.084Z,97669.91
2022-10-21T08:48:20.162Z,97661.03
2022-10-21T08:53:33.430Z,97653.94
2022-10-21T08:58:37.210Z,97653.25
2022-10-21T09:03:52.392Z,97639.69
2022-10-21T09:09:18.200Z,97637.06
2022-10-21T09:14:40.215Z,97631.19
2022-10-21T09:20:01.826Z,97623.47
2022-10-21T09:25:43.717Z,97618.91
2022-10-21T09:30:47.900Z,97614.41
2022-10-21T09:36:02.979Z,97621.06
2022-10-21T09:41:13.981Z,97632.53
2022-10-21T09:46:21.296Z,97631.44
2022-10-21T09:51:32.056Z,97632.25
2022-10-21T09:56:50.365Z,97642.06
2022-10-21T10:01:55.767Z,97630.16
2022-10-21T10:07:20.935Z,97644.22
2022-10-21T10:12:27.421Z,97644.13
2022-10-21T10:17:33.393Z,97635.03
2022-10-21T10:22:45.089Z,97632.53
2022-10-21T10:27:51.749Z,97627.00
2022-10-21T10:32:57.080Z,97614.88
2022-10-21T10:38:02.102Z,97615.34
2022-10-21T10:43:22.352Z,97607.69
2022-10-21T10:48:50.948Z,97610.41
2022-10-21T10:54:25.362Z,97600.75
2022-10-21T10:59:38.257Z,97604.94
2022-10-21T11:04:46.762Z,97596.34
2022-10-21T11:09:52.942Z,97585.13
2022-10-21T11:14:58.805Z,97580.97
2022-10-21T11:20:16.971Z,97571.97
2022-10-21T11:25:28.964Z,97570.03
2022-10-21T11:31:07.182Z,97560.28
2022-10-21T11:36:16.273Z,97554.00
2022-10-21T11:41:44.229Z,97565.81
2022-10-21T11:47:06.556Z,97568.75
2022-10-21T11:52:25.350Z,97568.22
2022-10-21T11:57:39.520Z,97579.34
2022-10-21T12:03:11.872Z,97576.03
2022-10-21T12:08:43.842Z,97564.16
2022-10-21T12:13:53.366Z,97565.16
2022-10-21T12:19:04.590Z,97559.09
2022-10-21T12:24:40.774Z,97569.13
2022-10-21T12:30:26.513Z,97569.56
2022-10-21T12:35:52.657Z,97562.72
2022-10-21T12:41:20.794Z,97568.41
2022-10-21T12:46:46.283Z,97563.84
2022-10-21T12:52:14.714Z,97561.22
2022-10-21T12:57:37.673Z,97562.91
2022-10-21T13:03:10.370Z,97561.31
2022-10-21T13:08:19.653Z,97561.13
2022-10-21T13:13:44.803Z,97552.53
2022-10-21T13:18:52.330Z,97560.16
2022-10-21T13:23:58.339Z,97575.81
2022-10-21T13:29:16.604Z,97572.28
2022-10-21T13:34:28.542Z,97580.94
2022-10-21T13:39:34.360Z,97583.50
2022-10-21T13:44:40.735Z,97583.88
2022-10-21T13:49:51.716Z,97585.31
2022-10-21T13:55:00.538Z,97588.84
2022-10-21T14:00:10.080Z,97588.63
2022-10-21T14:05:54.096Z,97593.47
2022-10-21T14:11:01.096Z,97600.97
2022-10-21T14:16:06.952Z,97602.16
2022-10-21T14:21:19.750Z,97600.69
2022-10-21T14:26:23.347Z,97608.06
2022-10-21T14:31:27.739Z,97618.59
2022-10-21T14:36:31.857Z,97616.53
2022-10-21T14:41:37.253Z,97622.69
2022-10-21T14:46:46.467Z,97626.69
2022-10-21T14:51:50.885Z,97627.63
2022-10-21T14:56:56.207Z,97635.41
2022-10-21T15:02:01.281Z,97639.34
2022-10-21T15:07:04.855Z,97640.25
2022-10-21T15:12:20.172Z,97638.91
2022-10-21T15:17:23.678Z,97644.41
2022-10-21T15:22:33.874Z,97654.78
2022-10-21T15:27:43.000Z,97658.34
2022-10-21T15:32:50.107Z,97668.16
2022-10-21T15:37:54.687Z,97667.13
2022-10-21T15:42:58.068Z,97671.81
2022-10-21T15:48:01.259Z,97674.56
2022-10-21T15:53:04.795Z,97674.59
2022-10-21T15:58:10.153Z,97679.50
2022-10-21T16:03:13.968Z,97686.59
2022-10-21T16:08:17.309Z,97689.38
2022-10-21T16:13:20.552Z,97695.63
2022-10-21T16:18:23.923Z,97702.72
2022-10-21T16:23:27.897Z,97705.44
2022-10-21T16:28:31.512Z,97708.97
2022-10-21T16:33:36.160Z,97710.09
2022-10-21T16:38:39.416Z,97718.81
2022-10-21T16:43:43.958Z,97712.81
2022-10-21T16:48:47.491Z,97722.38
2022-10-21T16:53:50.943Z,97720.19
2022-10-21T16:58:54.662Z,97728.34
2022-10-21T17:03:58.177Z,97732.44
2022-10-21T17:09:01.655Z,97740.06
2022-10-21T17:14:07.782Z,97745.75
2022-10-21T17:19:12.775Z,97746.88
2022-10-21T17:24:17.699Z,97753.69
2022-10-21T17:29:20.958Z,97757.75
2022-10-21T17:34:30.877Z,97763.47
2022-10-21T17:39:34.474Z,97761.88
2022-10-21T17:44:37.907Z,97770.00
2022-10-21T17:49:41.792Z,97780.31
2022-10-21T17:54:45.132Z,97784.66
2022-10-21T17:59:48.481Z,97787.66
2022-10-21T18:04:55.680Z,97789.56
2022-10-21T18:09:59.332Z,97792.00
2022-10-21T18:15:03.442Z,97796.91
2022-10-21T18:20:07.663Z,97807.78
2022-10-21T18:25:12.254Z,97814.31
2022-10-21T18:30:16.083Z,97814.56
2022-10-21T18:35:19.907Z,97823.81
2022-10-21T18:40:23.343Z,97824.91
2022-10-21T18:45:29.795Z,97827.09
2022-10-21T18:50:36.050Z,97833.34
2022-10-21T18:55:42.087Z,97825.47
2022-10-21T19:00:45.669Z,97833.06
2022-10-21T19:05:49.817Z,97834.16
2022-10-21T19:10:53.240Z,97844.47
2022-10-21T19:15:56.427Z,97837.72
2022-10-21T19:20:59.834Z,97835.81
2022-10-21T19:26:06.396Z,97817.63
2022-10-21T19:31:10.957Z,97818.97
2022-10-21T19:36:14.451Z,97818.13
2022-10-21T19:41:21.154Z,97816.75
2022-10-21T19:46:26.567Z,97812.69
2022-10-21T19:51:30.355Z,97810.53
2022-10-21T19:56:34.540Z,97813.53
2022-10-21T20:01:38.216Z,97809.19
2022-10-21T20:06:41.790Z,97813.81
2022-10-21T20:11:45.053Z,97812.47
2022-10-21T20:16:49.640Z,97820.06
2022-10-21T20:21:52.811Z,97827.41
2022-10-21T20:26:59.682Z,97828.47
2022-10-21T20:32:05.655Z,97819.25
2022-10-21T20:37:09.210Z,97826.88
2022-10-21T20:42:12.618Z,97809.19
2022-10-21T20:47:16.223Z,97817.34
2022-10-21T20:52:19.743Z,97818.44
2022-10-21T20:57:22.999Z,97808.38
2022-10-21T21:02:26.349Z,97816.25
2022-10-21T21:07:31.259Z,97815.72
2022-10-21T21:12:41.864Z,97819.78
2022-10-21T21:17:48.732Z,97818.38
2022-10-21T21:22:52.163Z,97815.94
2022-10-21T21:27:55.397Z,97808.06
2022-10-21T21:32:58.864Z,97813.22
2022-10-21T21:38:02.572Z,97806.75
2022-10-21T21:43:05.925Z,97812.19
2022-10-21T21:48:09.143Z,97809.47
2022-10-21T21:53:15.968Z,97806.47
2022-10-21T21:58:19.680Z,97809.75
2022-10-21T22:03:23.549Z,97806.78
2022-10-21T22:08:27.104Z,97812.50
2022-10-21T22:13:30.463Z,97807.63
2022-10-21T22:18:34.076Z,97801.13
2022-10-21T22:23:40.892Z,97804.91
2022-10-21T22:28:45.186Z,97804.91
2022-10-21T22:33:48.803Z,97808.16
2022-10-21T22:38:52.292Z,97813.88
2022-10-21T22:43:56.526Z,97799.50
2022-10-21T22:48:59.833Z,97802.19
2022-10-21T22:54:03.654Z,97810.88
2022-10-21T22:59:07.130Z,97804.63
2022-10-21T23:04:11.183Z,97796.50
2022-10-21T23:09:14.626Z,97801.09
2022-10-21T23:14:17.986Z,97796.50
2022-10-21T23:19:21.301Z,97788.06
2022-10-21T23:24:24.568Z,97794.03
2022-10-21T23:29:28.171Z,97785.34
2022-10-21T23:34:32.221Z,97773.41
2022-10-21T23:39:35.752Z,97783.22
2022-10-21T23:44:38.994Z,97788.63
2022-10-21T23:49:42.404Z,97781.59
2022-10-21T23:54:45.941Z,97787.53
2022-10-21T23:59:49.622Z,97788.88
